createdAt,value
2018-02-09T00:02:21.308Z,85.30
2018-02-09T00:07:15.981Z,92.00
2018-02-09T00:12:10.303Z,96.87
2018-02-09T00:17:04.781Z,95.50
2018-02-09T00:21:59.133Z,87.93
2018-02-09T00:26:53.439Z,94.70
2018-02-09T00:31:47.714Z,94.63
2018-02-09T00:36:42.011Z,89.23
2018-02-09T00:41:36.156Z,89.00
2018-02-09T00:46:31.222Z,88.10
2018-02-09T00:51:25.697Z,92.67
2018-02-09T00:56:20.221Z,91.87
2018-02-09T01:01:14.829Z,90.07
2018-02-09T01:06:09.128Z,98.30
2018-02-09T01:11:03.533Z,97.20
2018-02-09T01:15:57.862Z,96.17
2018-02-09T01:20:52.298Z,91.17
2018-02-09T01:25:47.352Z,91.00
2018-02-09T01:30:41.672Z,96.30
2018-02-09T01:35:35.989Z,90.60
2018-02-09T01:40:30.282Z,95.40
2018-02-09T01:45:24.587Z,102.17
2018-02-09T01:50:19.081Z,89.03
2018-02-09T01:55:13.368Z,96.57
2018-02-09T02:00:07.775Z,91.07
2018-02-09T02:05:02.079Z,93.33
2018-02-09T02:09:56.427Z,88.70
2018-02-09T02:14:51.518Z,92.33
2018-02-09T02:19:45.787Z,94.30
2018-02-09T02:24:40.088Z,95.43
2018-02-09T02:29:34.532Z,97.20
2018-02-09T02:34:29.596Z,96.00
2018-02-09T02:39:24.016Z,102.83
2018-02-09T02:44:18.382Z,86.43
2018-02-09T02:49:13.661Z,90.67
2018-02-09T02:54:07.962Z,100.43
2018-02-09T02:59:02.260Z,87.40
2018-02-09T03:03:56.544Z,92.63
2018-02-09T03:08:50.946Z,89.27
2018-02-09T03:13:45.380Z,86.83
2018-02-09T03:18:39.677Z,98.53
2018-02-09T03:23:33.956Z,97.43
2018-02-09T03:28:28.254Z,96.43
2018-02-09T03:33:22.548Z,88.37
2018-02-09T03:38:16.867Z,90.23
2018-02-09T03:43:11.136Z,96.67
2018-02-09T03:48:05.437Z,94.63
2018-02-09T03:52:59.734Z,92.37
2018-02-09T03:57:54.026Z,90.37
2018-02-09T04:02:49.088Z,93.30
2018-02-09T04:07:43.379Z,87.77
2018-02-09T04:12:37.673Z,87.03
2018-02-09T04:17:31.974Z,86.57
2018-02-09T04:22:26.268Z,92.23
2018-02-09T04:27:20.552Z,97.73
2018-02-09T04:32:14.840Z,87.17
2018-02-09T04:37:09.924Z,87.57
2018-02-09T04:42:05.093Z,92.73
2018-02-09T04:46:59.640Z,81.93
2018-02-09T04:51:55.784Z,86.53
2018-02-09T04:56:50.139Z,82.87
2018-02-09T05:01:45.197Z,87.20
2018-02-09T05:06:39.495Z,86.60
2018-02-09T05:11:33.768Z,85.87
2018-02-09T05:16:28.084Z,86.40
2018-02-09T05:21:22.378Z,84.73
2018-02-09T05:26:16.689Z,85.50
2018-02-09T05:31:11.169Z,87.03
2018-02-09T05:36:06.221Z,83.93
2018-02-09T05:41:00.501Z,88.10
2018-02-09T05:45:54.785Z,81.93
2018-02-09T05:50:49.856Z,83.37
2018-02-09T05:55:44.149Z,85.53
2018-02-09T06:00:38.596Z,76.50
2018-02-09T06:05:33.930Z,76.83
2018-02-09T06:10:29.103Z,83.47
2018-02-09T06:15:23.390Z,89.60
2018-02-09T06:20:17.694Z,83.70
2018-02-09T06:25:11.990Z,82.83
2018-02-09T06:30:06.493Z,89.40
2018-02-09T06:35:01.284Z,81.03
2018-02-09T06:39:56.577Z,87.33
2018-02-09T06:44:50.880Z,86.27
2018-02-09T06:49:45.174Z,88.63
2018-02-09T06:54:39.877Z,83.10
2018-02-09T06:59:34.771Z,86.80
2018-02-09T07:04:29.075Z,93.67
2018-02-09T07:09:23.360Z,82.20
2018-02-09T07:14:17.775Z,87.77
2018-02-09T07:19:12.109Z,79.93
2018-02-09T07:24:06.410Z,86.70
2018-02-09T07:29:00.700Z,87.73
2018-02-09T07:33:55.021Z,87.47
2018-02-09T07:38:49.300Z,89.00
2018-02-09T07:43:43.730Z,83.80
2018-02-09T07:48:38.368Z,85.67
2018-02-09T07:53:32.670Z,77.40
2018-02-09T07:58:27.274Z,62.53
2018-02-09T08:03:21.817Z,62.73
2018-02-09T08:08:16.140Z,58.47
2018-02-09T08:13:10.671Z,56.83
2018-02-09T08:18:05.737Z,57.47
2018-02-09T08:23:00.324Z,58.53
2018-02-09T08:27:54.616Z,59.57
2018-02-09T08:32:49.685Z,61.77
2018-02-09T08:37:44.133Z,58.83
2018-02-09T08:42:39.282Z,64.57
2018-02-09T08:47:33.584Z,63.80
2018-02-09T08:52:34.930Z,62.17
2018-02-09T08:57:29.320Z,65.67
2018-02-09T09:02:24.504Z,67.60
2018-02-09T09:07:18.873Z,68.23
2018-02-09T09:12:13.158Z,69.77
2018-02-09T09:17:07.444Z,64.50
2018-02-09T09:22:02.638Z,78.07
2018-02-09T09:26:56.820Z,70.83
2018-02-09T09:31:51.124Z,67.40
2018-02-09T09:36:45.422Z,70.87
2018-02-09T09:41:39.769Z,69.10
2018-02-09T09:46:34.820Z,64.40
2018-02-09T09:51:29.347Z,67.07
2018-02-09T09:56:23.697Z,66.70
2018-02-09T10:01:23.397Z,64.50
2018-02-09T10:06:19.355Z,69.80
2018-02-09T10:11:14.409Z,67.40
2018-02-09T10:16:08.507Z,68.87
2018-02-09T10:21:02.931Z,65.07
2018-02-09T10:25:57.196Z,69.63
2018-02-09T10:30:51.473Z,68.53
2018-02-09T10:35:46.530Z,65.40
2018-02-09T10:40:41.077Z,71.37
2018-02-09T10:45:35.382Z,67.27
2018-02-09T10:50:29.835Z,69.13
2018-02-09T10:55:24.171Z,67.17
2018-02-09T11:16:16.301Z,61.37
2018-02-09T11:21:10.882Z,61.90
2018-02-09T11:26:06.329Z,64.40
2018-02-09T11:31:00.742Z,61.43
2018-02-09T11:35:55.463Z,60.60
2018-02-09T11:40:49.809Z,60.57
2018-02-09T11:45:45.013Z,61.17
2018-02-09T11:50:39.284Z,63.93
2018-02-09T11:55:33.739Z,58.10
2018-02-09T12:00:28.795Z,66.37
2018-02-09T12:05:23.216Z,67.13
2018-02-09T12:10:17.603Z,63.17
2018-02-09T12:15:12.216Z,63.73
2018-02-09T12:20:06.722Z,58.67
2018-02-09T12:25:01.332Z,58.03
2018-02-09T12:29:55.645Z,58.47
2018-02-09T12:34:50.162Z,57.57
2018-02-09T12:39:44.446Z,54.17
2018-02-09T12:44:38.709Z,63.17
2018-02-09T12:49:33.137Z,54.73
2018-02-09T12:54:27.552Z,56.00
2018-02-09T12:59:21.839Z,55.70
2018-02-09T13:04:16.162Z,55.80
2018-02-09T13:09:10.524Z,60.57
2018-02-09T13:14:04.955Z,61.83
2018-02-09T13:19:00.189Z,60.97
2018-02-09T13:24:27.380Z,63.87
2018-02-09T13:29:21.844Z,57.87
2018-02-09T13:34:16.327Z,56.77
2018-02-09T13:39:11.658Z,60.17
2018-02-09T13:44:05.981Z,60.73
2018-02-09T13:49:00.310Z,55.70
2018-02-09T13:53:54.594Z,55.50
2018-02-09T13:58:49.147Z,52.70
2018-02-09T14:03:44.871Z,51.13
2018-02-09T14:08:39.142Z,45.47
2018-02-09T14:13:34.136Z,38.70
2018-02-09T14:18:28.396Z,40.53
2018-02-09T14:23:23.770Z,38.17
2018-02-09T14:28:19.094Z,41.42
2018-02-09T14:33:13.672Z,36.53
2018-02-09T14:38:08.011Z,36.40
2018-02-09T14:43:02.401Z,33.83
2018-02-09T14:47:57.524Z,34.27
2018-02-09T14:52:51.827Z,36.03
2018-02-09T14:57:46.112Z,33.47
2018-02-09T15:02:40.416Z,32.27
2018-02-09T15:07:34.707Z,30.33
2018-02-09T15:12:29.224Z,30.30
2018-02-09T15:17:23.508Z,28.07
2018-02-09T15:22:17.824Z,28.53
2018-02-09T15:27:12.370Z,27.63
2018-02-09T15:32:06.672Z,27.47
2018-02-09T15:37:00.963Z,28.03
2018-02-09T15:41:55.377Z,28.40
2018-02-09T15:46:49.776Z,29.23
2018-02-09T15:51:44.548Z,27.17
2018-02-09T15:56:38.926Z,26.33
2018-02-09T16:01:34.123Z,25.87
2018-02-09T16:06:29.402Z,30.73
2018-02-09T16:11:24.798Z,30.73
2018-02-09T16:16:19.872Z,29.37
2018-02-09T16:21:14.274Z,28.67
2018-02-09T16:26:08.748Z,27.50
2018-02-09T16:31:03.008Z,32.70
2018-02-09T16:35:58.487Z,30.60
2018-02-09T16:40:52.774Z,31.00
2018-02-09T16:45:47.098Z,27.00
2018-02-09T16:50:41.365Z,28.70
2018-02-09T16:55:35.761Z,26.70
2018-02-09T17:00:30.139Z,27.37
2018-02-09T17:05:25.231Z,28.50
2018-02-09T17:10:19.538Z,26.80
2018-02-09T17:15:14.341Z,29.93
2018-02-09T17:20:08.678Z,29.13
2018-02-09T17:25:03.536Z,28.47
2018-02-09T17:29:57.886Z,29.97
2018-02-09T17:34:52.980Z,27.73
2018-02-09T17:39:47.552Z,23.63
2018-02-09T17:44:41.992Z,27.63
2018-02-09T17:49:36.522Z,24.07
2018-02-09T17:54:32.411Z,23.77
2018-02-09T17:59:26.838Z,25.33
2018-02-09T18:04:21.261Z,27.20
2018-02-09T18:09:15.540Z,26.90
2018-02-09T18:14:09.838Z,27.50
2018-02-09T18:19:04.320Z,28.90
2018-02-09T18:23:58.580Z,27.57
2018-02-09T18:28:53.630Z,23.23
2018-02-09T18:33:47.912Z,29.30
2018-02-09T18:38:42.990Z,23.93
2018-02-09T18:43:37.669Z,27.90
2018-02-09T18:48:32.105Z,25.43
2018-02-09T18:53:26.689Z,27.10
2018-02-09T18:58:20.971Z,25.83
2018-02-09T19:03:15.484Z,27.77
2018-02-09T19:08:09.856Z,25.27
2018-02-09T19:13:04.922Z,23.43
2018-02-09T19:17:59.026Z,23.53
2018-02-09T19:22:53.332Z,24.63
2018-02-09T19:27:47.676Z,22.63
2018-02-09T19:32:42.747Z,22.60
2018-02-09T19:37:37.540Z,25.27
2018-02-09T19:42:31.941Z,22.87
2018-02-09T19:47:26.322Z,21.93
2018-02-09T19:52:20.856Z,25.23
2018-02-09T19:57:15.218Z,21.47
2018-02-09T20:02:10.378Z,22.47
2018-02-09T20:07:05.417Z,28.53
2018-02-09T20:11:59.682Z,26.77
2018-02-09T20:16:54.132Z,27.33
2018-02-09T20:21:48.800Z,25.73
2018-02-09T20:26:43.166Z,27.83
2018-02-09T20:31:38.196Z,26.27
2018-02-09T20:36:32.552Z,26.50
2018-02-09T20:41:26.834Z,31.33
2018-02-09T20:46:21.338Z,29.60
2018-02-09T20:51:15.619Z,32.40
2018-02-09T20:56:10.236Z,31.67
2018-02-09T21:01:04.491Z,32.83
2018-02-09T21:05:59.668Z,38.83
2018-02-09T21:10:54.364Z,32.30
2018-02-09T21:15:48.628Z,33.70
2018-02-09T21:20:43.716Z,35.53
2018-02-09T21:25:37.994Z,29.17
2018-02-09T21:30:32.384Z,32.57
2018-02-09T21:35:29.707Z,38.37
2018-02-09T21:40:24.775Z,40.87
2018-02-09T21:45:19.234Z,34.20
2018-02-09T21:50:14.506Z,38.50
2018-02-09T21:55:09.027Z,33.67
2018-02-09T22:00:03.449Z,35.67
2018-02-09T22:04:57.754Z,39.17
2018-02-09T22:09:52.017Z,41.30
2018-02-09T22:14:46.460Z,35.37
2018-02-09T22:19:40.748Z,33.67
2018-02-09T22:24:35.153Z,35.53
2018-02-09T22:29:29.265Z,41.37
2018-02-09T22:34:24.312Z,34.63
2018-02-09T22:39:19.574Z,36.13
2018-02-09T22:44:13.831Z,37.60
2018-02-09T22:49:10.489Z,44.43
2018-02-09T22:54:05.267Z,34.03
2018-02-09T22:58:59.543Z,41.40
2018-02-09T23:03:53.834Z,33.23
2018-02-09T23:08:51.068Z,37.80
2018-02-09T23:13:45.547Z,33.93
2018-02-09T23:18:40.046Z,40.07
2018-02-09T23:23:34.323Z,39.10
2018-02-09T23:28:29.059Z,39.73
2018-02-09T23:33:23.330Z,31.83
2018-02-09T23:38:17.909Z,40.43
2018-02-09T23:43:12.179Z,35.60
2018-02-09T23:48:06.474Z,35.87
2018-02-09T23:53:00.727Z,34.03
2018-02-09T23:57:55.269Z,34.03
